This is the latest recevied weather packets stored in our database for station/object KB9ZGZ. If no packets are shown the sender has not sent any weather packets the latest 10 day(s).
| Time | Temp. | Humidity | Pressure | Rain* | Wind** | Luminosity | Snow |
|---|---|---|---|---|---|---|---|
| 1777824940 | 16.11° C | 56% | 1010.4 hPa | 0.25 mm | - | - | - |
| 1777824037 | 16.11° C | 54% | 1010.7 hPa | 0.25 mm | - | - | - |
| 1777823151 | 16.11° C | 58% | 1011.4 hPa | 0.25 mm | - | - | - |
| 1777822232 | 15.56° C | 57% | 1011.5 hPa | 0.25 mm | - | - | - |
| 1777821331 | 15° C | 57% | 1011.7 hPa | 0.25 mm | - | - | - |
| 1777820443 | 14.44° C | 60% | 1011.8 hPa | 0.25 mm | - | - | - |
| 1777819528 | 13.89° C | 63% | 1012 hPa | 0.25 mm | - | - | - |
| 1777818634 | 13.89° C | 60% | 1012 hPa | 0.25 mm | - | - | - |
| 1777817727 | 13.33° C | 64% | 1012.1 hPa | 0.25 mm | - | - | - |
| 1777816824 | 12.78° C | 65% | 1012.1 hPa | 0.25 mm | - | - | - |
| 1777815929 | 11.67° C | 70% | 1012.2 hPa | 0.25 mm | - | - | - |
| 1777815027 | 11.11° C | 70% | 1012.2 hPa | 0.25 mm | - | - | - |
| 1777814127 | 10.56° C | 75% | 1012.3 hPa | 0.25 mm | - | - | - |
| 1777813221 | 9.44° C | 76% | 1012.6 hPa | 0 mm | - | - | - |
| 1777812323 | 8.89° C | 78% | 1012.6 hPa | 0 mm | - | - | - |
| 1777811419 | 8.33° C | 80% | 1012.6 hPa | 0 mm | - | - | - |
| 1777810519 | 7.78° C | 80% | 1012.7 hPa | 0 mm | - | - | - |
| 1777809651 | 7.78° C | 80% | 1012.4 hPa | 0 mm | - | - | - |
| 1777808751 | 7.78° C | 80% | 1012 hPa | 0 mm | - | - | - |
| 1777807850 | 7.22° C | 80% | 1012 hPa | 0 mm | - | - | - |
| 1777806946 | 7.22° C | 80% | 1012 hPa | 0 mm | - | - | - |
| 1777806046 | 7.22° C | 79% | 1012.1 hPa | 0 mm | - | - | - |
| 1777805143 | 7.22° C | 78% | 1012 hPa | 0 mm | - | - | - |
| 1777804239 | 7.78° C | 77% | 1012.1 hPa | 0 mm | - | - | - |
| 1777803338 | 7.78° C | 76% | 1012.2 hPa | 0 mm | - | - | - |
* Rain since midnight (hover to see other rain measurements)
** Current wind speed in m/s (hover to see current wind gust speed)